sensor_id;sensor_type;location;lat;lon;timestamp;P1;durP1;ratioP1;P2;durP2;ratioP2
9420;SDS011;4749;51.398;5.466;2023-08-08T00:01:37;5.63;;;2.00;;
9420;SDS011;4749;51.398;5.466;2023-08-08T00:04:05;4.18;;;1.80;;
9420;SDS011;4749;51.398;5.466;2023-08-08T00:06:32;5.60;;;1.92;;
9420;SDS011;4749;51.398;5.466;2023-08-08T00:08:59;4.30;;;2.22;;
9420;SDS011;4749;51.398;5.466;2023-08-08T00:11:26;6.55;;;2.53;;
9420;SDS011;4749;51.398;5.466;2023-08-08T00:13:53;6.22;;;2.17;;
9420;SDS011;4749;51.398;5.466;2023-08-08T00:16:20;3.72;;;2.05;;
9420;SDS011;4749;51.398;5.466;2023-08-08T00:18:48;4.65;;;2.33;;
9420;SDS011;4749;51.398;5.466;2023-08-08T00:21:16;4.15;;;1.88;;
9420;SDS011;4749;51.398;5.466;2023-08-08T00:23:43;3.40;;;2.08;;
9420;SDS011;4749;51.398;5.466;2023-08-08T00:26:10;5.22;;;2.05;;
9420;SDS011;4749;51.398;5.466;2023-08-08T00:28:38;4.65;;;2.28;;
9420;SDS011;4749;51.398;5.466;2023-08-08T00:31:05;3.60;;;2.20;;
9420;SDS011;4749;51.398;5.466;2023-08-08T00:33:32;4.40;;;2.13;;
9420;SDS011;4749;51.398;5.466;2023-08-08T00:35:59;5.82;;;2.00;;
9420;SDS011;4749;51.398;5.466;2023-08-08T00:38:26;4.30;;;2.03;;
9420;SDS011;4749;51.398;5.466;2023-08-08T00:40:53;6.32;;;2.10;;
9420;SDS011;4749;51.398;5.466;2023-08-08T00:43:20;3.35;;;2.00;;
9420;SDS011;4749;51.398;5.466;2023-08-08T00:45:47;6.78;;;2.17;;
9420;SDS011;4749;51.398;5.466;2023-08-08T00:48:14;6.63;;;2.20;;
9420;SDS011;4749;51.398;5.466;2023-08-08T00:50:42;6.05;;;2.50;;
9420;SDS011;4749;51.398;5.466;2023-08-08T00:53:13;3.80;;;2.03;;
9420;SDS011;4749;51.398;5.466;2023-08-08T00:55:41;12.65;;;2.60;;
9420;SDS011;4749;51.398;5.466;2023-08-08T00:58:08;3.90;;;2.25;;
9420;SDS011;4749;51.398;5.466;2023-08-08T01:00:36;4.90;;;2.20;;
9420;SDS011;4749;51.398;5.466;2023-08-08T01:03:03;6.00;;;2.45;;
9420;SDS011;4749;51.398;5.466;2023-08-08T01:05:33;5.03;;;2.20;;
9420;SDS011;4749;51.398;5.466;2023-08-08T01:08:15;6.13;;;2.90;;
9420;SDS011;4749;51.398;5.466;2023-08-08T01:10:48;3.83;;;2.28;;
9420;SDS011;4749;51.398;5.466;2023-08-08T01:13:23;5.13;;;2.05;;
9420;SDS011;4749;51.398;5.466;2023-08-08T01:15:52;3.88;;;2.00;;
9420;SDS011;4749;51.398;5.466;2023-08-08T01:18:22;6.13;;;2.30;;
9420;SDS011;4749;51.398;5.466;2023-08-08T01:20:50;5.20;;;2.03;;
9420;SDS011;4749;51.398;5.466;2023-08-08T01:23:23;9.15;;;2.38;;
9420;SDS011;4749;51.398;5.466;2023-08-08T01:25:59;5.43;;;2.28;;
9420;SDS011;4749;51.398;5.466;2023-08-08T01:28:26;6.95;;;1.77;;
9420;SDS011;4749;51.398;5.466;2023-08-08T01:30:54;6.88;;;2.13;;
9420;SDS011;4749;51.398;5.466;2023-08-08T01:33:21;7.30;;;2.83;;
9420;SDS011;4749;51.398;5.466;2023-08-08T01:35:56;7.65;;;2.10;;
9420;SDS011;4749;51.398;5.466;2023-08-08T01:38:36;4.47;;;2.70;;
9420;SDS011;4749;51.398;5.466;2023-08-08T01:41:10;6.43;;;1.90;;
9420;SDS011;4749;51.398;5.466;2023-08-08T01:43:37;7.22;;;2.50;;
9420;SDS011;4749;51.398;5.466;2023-08-08T01:46:05;6.25;;;2.90;;
9420;SDS011;4749;51.398;5.466;2023-08-08T01:48:34;7.07;;;2.13;;
9420;SDS011;4749;51.398;5.466;2023-08-08T01:51:02;6.78;;;2.20;;
9420;SDS011;4749;51.398;5.466;2023-08-08T01:53:29;8.27;;;2.40;;
9420;SDS011;4749;51.398;5.466;2023-08-08T01:55:56;9.60;;;2.13;;
9420;SDS011;4749;51.398;5.466;2023-08-08T01:58:23;8.82;;;2.83;;
9420;SDS011;4749;51.398;5.466;2023-08-08T02:00:50;8.80;;;2.55;;
9420;SDS011;4749;51.398;5.466;2023-08-08T02:03:17;10.02;;;2.92;;
9420;SDS011;4749;51.398;5.466;2023-08-08T02:05:45;7.18;;;2.30;;
9420;SDS011;4749;51.398;5.466;2023-08-08T02:08:12;6.05;;;2.75;;
9420;SDS011;4749;51.398;5.466;2023-08-08T02:10:39;11.52;;;3.35;;
9420;SDS011;4749;51.398;5.466;2023-08-08T02:13:06;6.38;;;2.30;;
9420;SDS011;4749;51.398;5.466;2023-08-08T02:15:33;5.53;;;2.30;;
9420;SDS011;4749;51.398;5.466;2023-08-08T02:18:00;6.32;;;2.35;;
9420;SDS011;4749;51.398;5.466;2023-08-08T02:20:29;9.13;;;2.85;;
9420;SDS011;4749;51.398;5.466;2023-08-08T02:22:57;7.63;;;2.60;;
9420;SDS011;4749;51.398;5.466;2023-08-08T02:25:24;9.32;;;2.72;;
9420;SDS011;4749;51.398;5.466;2023-08-08T02:27:51;9.18;;;3.20;;
9420;SDS011;4749;51.398;5.466;2023-08-08T02:30:18;10.15;;;3.03;;
9420;SDS011;4749;51.398;5.466;2023-08-08T02:32:45;7.32;;;2.92;;
9420;SDS011;4749;51.398;5.466;2023-08-08T02:35:13;9.48;;;3.10;;
9420;SDS011;4749;51.398;5.466;2023-08-08T02:37:40;7.20;;;3.10;;
9420;SDS011;4749;51.398;5.466;2023-08-08T02:40:07;6.43;;;3.20;;
9420;SDS011;4749;51.398;5.466;2023-08-08T02:42:36;9.85;;;2.90;;
9420;SDS011;4749;51.398;5.466;2023-08-08T02:45:03;8.20;;;3.13;;
9420;SDS011;4749;51.398;5.466;2023-08-08T02:47:31;9.15;;;2.75;;
9420;SDS011;4749;51.398;5.466;2023-08-08T02:49:58;9.38;;;3.70;;
9420;SDS011;4749;51.398;5.466;2023-08-08T02:52:25;6.20;;;3.42;;
9420;SDS011;4749;51.398;5.466;2023-08-08T02:54:52;14.15;;;3.53;;
9420;SDS011;4749;51.398;5.466;2023-08-08T02:57:19;10.52;;;3.40;;
9420;SDS011;4749;51.398;5.466;2023-08-08T02:59:47;7.38;;;3.25;;
9420;SDS011;4749;51.398;5.466;2023-08-08T03:02:14;8.13;;;3.60;;
9420;SDS011;4749;51.398;5.466;2023-08-08T03:04:41;10.02;;;3.75;;
9420;SDS011;4749;51.398;5.466;2023-08-08T03:07:08;12.98;;;3.70;;
9420;SDS011;4749;51.398;5.466;2023-08-08T03:09:35;10.95;;;3.92;;
9420;SDS011;4749;51.398;5.466;2023-08-08T03:12:02;14.27;;;4.07;;
9420;SDS011;4749;51.398;5.466;2023-08-08T03:14:30;8.43;;;3.45;;
9420;SDS011;4749;51.398;5.466;2023-08-08T03:16:57;9.95;;;3.70;;
9420;SDS011;4749;51.398;5.466;2023-08-08T03:19:25;14.43;;;3.88;;
9420;SDS011;4749;51.398;5.466;2023-08-08T03:21:52;10.45;;;3.80;;
9420;SDS011;4749;51.398;5.466;2023-08-08T03:24:20;12.05;;;3.42;;
9420;SDS011;4749;51.398;5.466;2023-08-08T03:26:47;10.80;;;3.67;;
9420;SDS011;4749;51.398;5.466;2023-08-08T03:29:14;12.27;;;3.47;;
9420;SDS011;4749;51.398;5.466;2023-08-08T03:31:41;11.80;;;3.80;;
9420;SDS011;4749;51.398;5.466;2023-08-08T03:34:08;10.48;;;3.78;;
9420;SDS011;4749;51.398;5.466;2023-08-08T03:36:35;15.70;;;4.00;;
9420;SDS011;4749;51.398;5.466;2023-08-08T03:39:02;10.38;;;3.97;;
9420;SDS011;4749;51.398;5.466;2023-08-08T03:41:30;11.18;;;3.97;;
9420;SDS011;4749;51.398;5.466;2023-08-08T03:43:57;8.98;;;3.70;;
9420;SDS011;4749;51.398;5.466;2023-08-08T03:46:24;10.55;;;4.00;;
9420;SDS011;4749;51.398;5.466;2023-08-08T03:48:51;12.23;;;3.72;;
9420;SDS011;4749;51.398;5.466;2023-08-08T03:51:19;13.52;;;4.32;;
9420;SDS011;4749;51.398;5.466;2023-08-08T03:53:47;15.77;;;3.80;;
9420;SDS011;4749;51.398;5.466;2023-08-08T03:56:14;14.75;;;4.22;;
9420;SDS011;4749;51.398;5.466;2023-08-08T03:58:41;9.20;;;4.60;;
9420;SDS011;4749;51.398;5.466;2023-08-08T04:01:08;16.63;;;4.20;;
9420;SDS011;4749;51.398;5.466;2023-08-08T04:03:35;12.57;;;4.80;;
9420;SDS011;4749;51.398;5.466;2023-08-08T04:06:03;12.32;;;4.20;;
9420;SDS011;4749;51.398;5.466;2023-08-08T04:08:30;14.68;;;4.88;;
9420;SDS011;4749;51.398;5.466;2023-08-08T04:10:58;12.38;;;4.68;;
9420;SDS011;4749;51.398;5.466;2023-08-08T04:13:25;12.68;;;4.63;;
9420;SDS011;4749;51.398;5.466;2023-08-08T04:15:52;14.00;;;5.18;;
9420;SDS011;4749;51.398;5.466;2023-08-08T04:18:19;15.55;;;4.93;;
9420;SDS011;4749;51.398;5.466;2023-08-08T04:20:46;18.15;;;5.05;;
9420;SDS011;4749;51.398;5.466;2023-08-08T04:23:13;13.02;;;4.20;;
9420;SDS011;4749;51.398;5.466;2023-08-08T04:25:40;14.65;;;4.70;;
9420;SDS011;4749;51.398;5.466;2023-08-08T04:28:08;21.90;;;5.25;;
9420;SDS011;4749;51.398;5.466;2023-08-08T04:30:35;10.70;;;4.75;;
9420;SDS011;4749;51.398;5.466;2023-08-08T04:33:02;15.63;;;4.63;;
9420;SDS011;4749;51.398;5.466;2023-08-08T04:35:30;12.48;;;4.55;;
9420;SDS011;4749;51.398;5.466;2023-08-08T04:37:57;13.60;;;5.10;;
9420;SDS011;4749;51.398;5.466;2023-08-08T04:40:24;11.68;;;5.03;;
9420;SDS011;4749;51.398;5.466;2023-08-08T04:42:51;15.70;;;5.72;;
9420;SDS011;4749;51.398;5.466;2023-08-08T04:45:18;15.63;;;5.13;;
9420;SDS011;4749;51.398;5.466;2023-08-08T04:47:47;19.95;;;5.63;;
9420;SDS011;4749;51.398;5.466;2023-08-08T04:50:14;18.00;;;5.65;;
9420;SDS011;4749;51.398;5.466;2023-08-08T04:52:41;12.80;;;5.38;;
9420;SDS011;4749;51.398;5.466;2023-08-08T04:55:09;15.25;;;5.03;;
9420;SDS011;4749;51.398;5.466;2023-08-08T04:57:36;16.65;;;5.10;;
9420;SDS011;4749;51.398;5.466;2023-08-08T05:00:03;17.17;;;5.50;;
9420;SDS011;4749;51.398;5.466;2023-08-08T05:02:34;15.70;;;5.35;;
9420;SDS011;4749;51.398;5.466;2023-08-08T05:05:02;13.77;;;5.18;;
9420;SDS011;4749;51.398;5.466;2023-08-08T05:07:30;10.30;;;5.40;;
9420;SDS011;4749;51.398;5.466;2023-08-08T05:09:57;14.35;;;4.97;;
9420;SDS011;4749;51.398;5.466;2023-08-08T05:12:24;11.77;;;5.22;;
9420;SDS011;4749;51.398;5.466;2023-08-08T05:14:53;13.82;;;5.72;;
9420;SDS011;4749;51.398;5.466;2023-08-08T05:17:21;16.10;;;5.32;;
9420;SDS011;4749;51.398;5.466;2023-08-08T05:19:48;10.02;;;4.93;;
9420;SDS011;4749;51.398;5.466;2023-08-08T05:22:15;10.32;;;5.20;;
9420;SDS011;4749;51.398;5.466;2023-08-08T05:24:42;13.82;;;5.22;;
9420;SDS011;4749;51.398;5.466;2023-08-08T05:27:09;18.00;;;5.40;;
9420;SDS011;4749;51.398;5.466;2023-08-08T05:29:37;13.38;;;5.22;;
9420;SDS011;4749;51.398;5.466;2023-08-08T05:32:05;14.13;;;4.93;;
9420;SDS011;4749;51.398;5.466;2023-08-08T05:34:34;12.98;;;4.90;;
9420;SDS011;4749;51.398;5.466;2023-08-08T05:37:01;12.35;;;4.63;;
9420;SDS011;4749;51.398;5.466;2023-08-08T05:39:42;14.35;;;4.57;;
9420;SDS011;4749;51.398;5.466;2023-08-08T05:42:10;11.82;;;4.50;;
9420;SDS011;4749;51.398;5.466;2023-08-08T05:44:38;12.32;;;4.78;;
9420;SDS011;4749;51.398;5.466;2023-08-08T05:47:05;12.00;;;4.35;;
9420;SDS011;4749;51.398;5.466;2023-08-08T05:49:33;10.35;;;4.20;;
9420;SDS011;4749;51.398;5.466;2023-08-08T05:52:01;10.38;;;4.78;;
9420;SDS011;4749;51.398;5.466;2023-08-08T05:54:29;15.52;;;4.18;;
9420;SDS011;4749;51.398;5.466;2023-08-08T05:56:56;10.68;;;4.20;;
9420;SDS011;4749;51.398;5.466;2023-08-08T05:59:23;11.05;;;4.35;;
9420;SDS011;4749;51.398;5.466;2023-08-08T06:01:50;16.05;;;4.65;;
9420;SDS011;4749;51.398;5.466;2023-08-08T06:04:18;13.27;;;4.03;;
9420;SDS011;4749;51.398;5.466;2023-08-08T06:06:45;13.85;;;4.28;;
9420;SDS011;4749;51.398;5.466;2023-08-08T06:09:15;12.63;;;4.28;;
9420;SDS011;4749;51.398;5.466;2023-08-08T06:11:43;12.40;;;3.97;;
9420;SDS011;4749;51.398;5.466;2023-08-08T06:14:10;14.45;;;4.80;;
9420;SDS011;4749;51.398;5.466;2023-08-08T06:16:37;15.93;;;4.43;;
9420;SDS011;4749;51.398;5.466;2023-08-08T06:19:05;9.85;;;4.32;;
9420;SDS011;4749;51.398;5.466;2023-08-08T06:21:32;14.95;;;4.35;;
9420;SDS011;4749;51.398;5.466;2023-08-08T06:23:59;13.63;;;4.32;;
9420;SDS011;4749;51.398;5.466;2023-08-08T06:26:26;16.30;;;4.35;;
9420;SDS011;4749;51.398;5.466;2023-08-08T06:28:53;9.18;;;3.95;;
9420;SDS011;4749;51.398;5.466;2023-08-08T06:31:20;11.70;;;4.22;;
9420;SDS011;4749;51.398;5.466;2023-08-08T06:33:48;14.85;;;4.38;;
9420;SDS011;4749;51.398;5.466;2023-08-08T06:36:15;11.43;;;4.05;;
9420;SDS011;4749;51.398;5.466;2023-08-08T06:38:42;12.02;;;4.50;;
9420;SDS011;4749;51.398;5.466;2023-08-08T06:41:10;9.10;;;3.92;;
9420;SDS011;4749;51.398;5.466;2023-08-08T06:43:37;15.80;;;4.28;;
9420;SDS011;4749;51.398;5.466;2023-08-08T06:46:04;10.90;;;4.25;;
9420;SDS011;4749;51.398;5.466;2023-08-08T06:48:31;9.93;;;3.83;;
9420;SDS011;4749;51.398;5.466;2023-08-08T06:50:58;11.27;;;3.75;;
9420;SDS011;4749;51.398;5.466;2023-08-08T06:53:25;15.55;;;4.30;;
9420;SDS011;4749;51.398;5.466;2023-08-08T06:55:52;14.00;;;3.75;;
9420;SDS011;4749;51.398;5.466;2023-08-08T06:58:19;10.10;;;3.75;;
9420;SDS011;4749;51.398;5.466;2023-08-08T07:00:47;11.93;;;4.07;;
9420;SDS011;4749;51.398;5.466;2023-08-08T07:03:14;9.75;;;3.88;;
9420;SDS011;4749;51.398;5.466;2023-08-08T07:05:41;8.75;;;3.35;;
9420;SDS011;4749;51.398;5.466;2023-08-08T07:08:08;9.93;;;3.38;;
9420;SDS011;4749;51.398;5.466;2023-08-08T07:10:35;8.57;;;3.25;;
9420;SDS011;4749;51.398;5.466;2023-08-08T07:13:02;7.22;;;3.30;;
9420;SDS011;4749;51.398;5.466;2023-08-08T07:15:30;10.48;;;3.35;;
9420;SDS011;4749;51.398;5.466;2023-08-08T07:17:57;18.10;;;3.75;;
9420;SDS011;4749;51.398;5.466;2023-08-08T07:20:24;8.05;;;3.20;;
9420;SDS011;4749;51.398;5.466;2023-08-08T07:22:52;13.43;;;3.63;;
9420;SDS011;4749;51.398;5.466;2023-08-08T07:25:19;7.53;;;3.22;;
9420;SDS011;4749;51.398;5.466;2023-08-08T07:27:46;8.40;;;3.10;;
9420;SDS011;4749;51.398;5.466;2023-08-08T07:30:14;11.60;;;3.08;;
9420;SDS011;4749;51.398;5.466;2023-08-08T07:32:42;12.05;;;3.15;;
9420;SDS011;4749;51.398;5.466;2023-08-08T07:35:09;9.73;;;3.53;;
9420;SDS011;4749;51.398;5.466;2023-08-08T07:37:37;11.10;;;3.88;;
9420;SDS011;4749;51.398;5.466;2023-08-08T07:40:13;7.40;;;3.22;;
9420;SDS011;4749;51.398;5.466;2023-08-08T07:42:45;9.60;;;3.22;;
9420;SDS011;4749;51.398;5.466;2023-08-08T07:45:13;11.80;;;3.25;;
9420;SDS011;4749;51.398;5.466;2023-08-08T07:47:41;8.23;;;2.95;;
9420;SDS011;4749;51.398;5.466;2023-08-08T07:50:09;6.15;;;2.22;;
9420;SDS011;4749;51.398;5.466;2023-08-08T07:52:37;5.65;;;2.38;;
9420;SDS011;4749;51.398;5.466;2023-08-08T07:55:04;11.95;;;3.22;;
9420;SDS011;4749;51.398;5.466;2023-08-08T07:57:32;4.55;;;2.50;;
9420;SDS011;4749;51.398;5.466;2023-08-08T08:00:03;8.45;;;2.75;;
9420;SDS011;4749;51.398;5.466;2023-08-08T08:02:35;9.82;;;2.90;;
9420;SDS011;4749;51.398;5.466;2023-08-08T08:05:03;10.90;;;2.50;;
9420;SDS011;4749;51.398;5.466;2023-08-08T08:07:34;10.23;;;2.97;;
9420;SDS011;4749;51.398;5.466;2023-08-08T08:10:02;9.13;;;2.38;;
9420;SDS011;4749;51.398;5.466;2023-08-08T08:12:32;7.13;;;2.63;;
9420;SDS011;4749;51.398;5.466;2023-08-08T08:14:59;11.38;;;2.75;;
9420;SDS011;4749;51.398;5.466;2023-08-08T08:17:27;10.90;;;3.20;;
9420;SDS011;4749;51.398;5.466;2023-08-08T08:19:54;8.82;;;2.53;;
9420;SDS011;4749;51.398;5.466;2023-08-08T08:22:21;11.00;;;2.65;;
9420;SDS011;4749;51.398;5.466;2023-08-08T08:24:49;8.50;;;3.13;;
9420;SDS011;4749;51.398;5.466;2023-08-08T08:27:16;7.72;;;2.45;;
9420;SDS011;4749;51.398;5.466;2023-08-08T08:29:44;5.38;;;1.92;;
9420;SDS011;4749;51.398;5.466;2023-08-08T08:32:11;5.40;;;2.50;;
9420;SDS011;4749;51.398;5.466;2023-08-08T08:34:38;8.48;;;2.55;;
9420;SDS011;4749;51.398;5.466;2023-08-08T08:37:06;8.15;;;2.50;;
9420;SDS011;4749;51.398;5.466;2023-08-08T08:39:33;6.80;;;2.60;;
9420;SDS011;4749;51.398;5.466;2023-08-08T08:42:00;5.90;;;2.25;;
9420;SDS011;4749;51.398;5.466;2023-08-08T08:44:30;6.97;;;2.00;;
9420;SDS011;4749;51.398;5.466;2023-08-08T08:47:03;11.20;;;2.10;;
9420;SDS011;4749;51.398;5.466;2023-08-08T08:49:38;10.90;;;2.47;;
9420;SDS011;4749;51.398;5.466;2023-08-08T08:52:08;9.43;;;2.47;;
9420;SDS011;4749;51.398;5.466;2023-08-08T08:54:36;7.78;;;2.30;;
9420;SDS011;4749;51.398;5.466;2023-08-08T08:57:03;5.13;;;1.95;;
9420;SDS011;4749;51.398;5.466;2023-08-08T08:59:30;8.57;;;2.28;;
9420;SDS011;4749;51.398;5.466;2023-08-08T09:01:57;8.70;;;2.67;;
9420;SDS011;4749;51.398;5.466;2023-08-08T09:04:27;7.47;;;2.22;;
9420;SDS011;4749;51.398;5.466;2023-08-08T09:06:55;7.68;;;2.40;;
9420;SDS011;4749;51.398;5.466;2023-08-08T09:09:23;7.47;;;2.72;;
9420;SDS011;4749;51.398;5.466;2023-08-08T09:11:50;6.15;;;2.28;;
9420;SDS011;4749;51.398;5.466;2023-08-08T09:14:24;6.25;;;2.42;;
9420;SDS011;4749;51.398;5.466;2023-08-08T09:16:53;6.53;;;2.20;;
9420;SDS011;4749;51.398;5.466;2023-08-08T09:19:21;11.27;;;2.67;;
9420;SDS011;4749;51.398;5.466;2023-08-08T09:21:49;6.78;;;1.98;;
9420;SDS011;4749;51.398;5.466;2023-08-08T09:24:18;10.45;;;2.55;;
9420;SDS011;4749;51.398;5.466;2023-08-08T09:26:46;8.82;;;2.42;;
9420;SDS011;4749;51.398;5.466;2023-08-08T09:29:13;6.10;;;2.42;;
9420;SDS011;4749;51.398;5.466;2023-08-08T09:31:41;9.48;;;2.38;;
9420;SDS011;4749;51.398;5.466;2023-08-08T09:34:09;7.45;;;2.47;;
9420;SDS011;4749;51.398;5.466;2023-08-08T09:36:36;7.43;;;2.78;;
9420;SDS011;4749;51.398;5.466;2023-08-08T09:39:03;6.07;;;2.30;;
9420;SDS011;4749;51.398;5.466;2023-08-08T09:41:31;9.00;;;2.58;;
9420;SDS011;4749;51.398;5.466;2023-08-08T09:43:59;6.47;;;2.50;;
9420;SDS011;4749;51.398;5.466;2023-08-08T09:46:28;7.78;;;2.50;;
9420;SDS011;4749;51.398;5.466;2023-08-08T09:48:57;6.78;;;2.40;;
9420;SDS011;4749;51.398;5.466;2023-08-08T09:51:25;6.72;;;2.53;;
9420;SDS011;4749;51.398;5.466;2023-08-08T09:53:53;7.07;;;2.53;;
9420;SDS011;4749;51.398;5.466;2023-08-08T09:56:25;8.68;;;2.67;;
9420;SDS011;4749;51.398;5.466;2023-08-08T09:58:53;8.27;;;2.60;;
9420;SDS011;4749;51.398;5.466;2023-08-08T10:01:20;9.13;;;3.40;;
9420;SDS011;4749;51.398;5.466;2023-08-08T10:03:48;5.30;;;2.55;;
9420;SDS011;4749;51.398;5.466;2023-08-08T10:06:19;8.10;;;2.80;;
9420;SDS011;4749;51.398;5.466;2023-08-08T10:08:46;9.70;;;3.60;;
9420;SDS011;4749;51.398;5.466;2023-08-08T10:11:13;10.18;;;2.83;;
9420;SDS011;4749;51.398;5.466;2023-08-08T10:13:47;6.57;;;2.55;;
9420;SDS011;4749;51.398;5.466;2023-08-08T10:16:16;5.72;;;2.30;;
9420;SDS011;4749;51.398;5.466;2023-08-08T10:18:54;8.30;;;1.80;;
9420;SDS011;4749;51.398;5.466;2023-08-08T10:21:24;4.07;;;1.80;;
9420;SDS011;4749;51.398;5.466;2023-08-08T10:24:02;7.57;;;2.00;;
9420;SDS011;4749;51.398;5.466;2023-08-08T10:26:50;6.78;;;1.77;;
9420;SDS011;4749;51.398;5.466;2023-08-08T10:29:27;6.88;;;1.95;;
9420;SDS011;4749;51.398;5.466;2023-08-08T10:32:03;4.20;;;1.77;;
9420;SDS011;4749;51.398;5.466;2023-08-08T10:34:39;4.38;;;1.67;;
9420;SDS011;4749;51.398;5.466;2023-08-08T10:37:16;5.32;;;1.83;;
9420;SDS011;4749;51.398;5.466;2023-08-08T10:39:53;6.53;;;1.85;;
9420;SDS011;4749;51.398;5.466;2023-08-08T10:42:25;4.53;;;1.52;;
9420;SDS011;4749;51.398;5.466;2023-08-08T10:44:55;2.70;;;1.60;;
9420;SDS011;4749;51.398;5.466;2023-08-08T10:47:25;3.72;;;1.48;;
9420;SDS011;4749;51.398;5.466;2023-08-08T10:50:13;6.85;;;1.92;;
9420;SDS011;4749;51.398;5.466;2023-08-08T10:55:23;5.30;;;1.50;;
9420;SDS011;4749;51.398;5.466;2023-08-08T10:58:08;6.57;;;1.98;;
9420;SDS011;4749;51.398;5.466;2023-08-08T11:00:39;2.80;;;1.50;;
9420;SDS011;4749;51.398;5.466;2023-08-08T11:03:07;5.38;;;1.70;;
9420;SDS011;4749;51.398;5.466;2023-08-08T11:05:36;5.00;;;1.63;;
9420;SDS011;4749;51.398;5.466;2023-08-08T11:08:05;3.33;;;1.45;;
9420;SDS011;4749;51.398;5.466;2023-08-08T11:10:37;3.97;;;1.98;;
9420;SDS011;4749;51.398;5.466;2023-08-08T11:13:08;2.70;;;1.60;;
9420;SDS011;4749;51.398;5.466;2023-08-08T11:15:36;3.28;;;1.60;;
9420;SDS011;4749;51.398;5.466;2023-08-08T11:18:05;4.05;;;2.20;;
9420;SDS011;4749;51.398;5.466;2023-08-08T11:20:35;5.47;;;1.42;;
9420;SDS011;4749;51.398;5.466;2023-08-08T11:23:03;3.83;;;1.60;;
9420;SDS011;4749;51.398;5.466;2023-08-08T11:25:37;3.63;;;1.60;;
9420;SDS011;4749;51.398;5.466;2023-08-08T11:28:11;5.53;;;1.63;;
9420;SDS011;4749;51.398;5.466;2023-08-08T11:30:43;3.20;;;1.58;;
9420;SDS011;4749;51.398;5.466;2023-08-08T11:33:12;3.17;;;1.55;;
9420;SDS011;4749;51.398;5.466;2023-08-08T11:35:44;3.63;;;1.23;;
9420;SDS011;4749;51.398;5.466;2023-08-08T11:38:15;4.05;;;1.35;;
9420;SDS011;4749;51.398;5.466;2023-08-08T11:40:43;3.40;;;1.20;;
9420;SDS011;4749;51.398;5.466;2023-08-08T11:43:11;6.10;;;1.88;;
9420;SDS011;4749;51.398;5.466;2023-08-08T11:45:40;5.15;;;1.40;;
9420;SDS011;4749;51.398;5.466;2023-08-08T11:48:08;3.17;;;1.48;;
9420;SDS011;4749;51.398;5.466;2023-08-08T11:50:36;2.67;;;1.13;;
9420;SDS011;4749;51.398;5.466;2023-08-08T11:53:04;2.60;;;1.77;;
9420;SDS011;4749;51.398;5.466;2023-08-08T11:55:32;4.88;;;1.60;;
9420;SDS011;4749;51.398;5.466;2023-08-08T11:58:00;4.65;;;1.30;;
9420;SDS011;4749;51.398;5.466;2023-08-08T12:00:29;5.10;;;1.30;;
9420;SDS011;4749;51.398;5.466;2023-08-08T12:02:58;3.47;;;1.10;;
9420;SDS011;4749;51.398;5.466;2023-08-08T12:05:28;3.80;;;1.40;;
9420;SDS011;4749;51.398;5.466;2023-08-08T12:07:56;6.95;;;1.48;;
9420;SDS011;4749;51.398;5.466;2023-08-08T12:10:25;2.00;;;1.13;;
9420;SDS011;4749;51.398;5.466;2023-08-08T12:12:53;3.63;;;1.30;;
9420;SDS011;4749;51.398;5.466;2023-08-08T12:15:43;2.30;;;1.10;;
9420;SDS011;4749;51.398;5.466;2023-08-08T12:18:16;3.42;;;1.30;;
9420;SDS011;4749;51.398;5.466;2023-08-08T12:20:44;2.30;;;1.40;;
9420;SDS011;4749;51.398;5.466;2023-08-08T12:23:12;3.97;;;1.27;;
9420;SDS011;4749;51.398;5.466;2023-08-08T12:25:41;6.45;;;1.75;;
9420;SDS011;4749;51.398;5.466;2023-08-08T12:28:09;3.90;;;1.00;;
9420;SDS011;4749;51.398;5.466;2023-08-08T12:30:36;3.08;;;0.90;;
9420;SDS011;4749;51.398;5.466;2023-08-08T12:33:03;3.08;;;1.10;;
9420;SDS011;4749;51.398;5.466;2023-08-08T12:35:31;1.73;;;0.70;;
9420;SDS011;4749;51.398;5.466;2023-08-08T12:37:58;2.35;;;0.80;;
9420;SDS011;4749;51.398;5.466;2023-08-08T12:40:25;2.78;;;0.73;;
9420;SDS011;4749;51.398;5.466;2023-08-08T12:42:52;3.10;;;0.70;;
9420;SDS011;4749;51.398;5.466;2023-08-08T12:45:19;1.60;;;0.90;;
9420;SDS011;4749;51.398;5.466;2023-08-08T12:47:46;1.60;;;0.77;;
9420;SDS011;4749;51.398;5.466;2023-08-08T12:50:13;3.25;;;0.82;;
9420;SDS011;4749;51.398;5.466;2023-08-08T12:52:40;1.33;;;0.50;;
9420;SDS011;4749;51.398;5.466;2023-08-08T12:55:08;2.55;;;0.70;;
9420;SDS011;4749;51.398;5.466;2023-08-08T12:57:37;1.63;;;0.70;;
9420;SDS011;4749;51.398;5.466;2023-08-08T13:00:05;1.48;;;0.70;;
9420;SDS011;4749;51.398;5.466;2023-08-08T13:02:35;1.33;;;0.65;;
9420;SDS011;4749;51.398;5.466;2023-08-08T13:05:04;1.50;;;0.60;;
9420;SDS011;4749;51.398;5.466;2023-08-08T13:07:33;4.00;;;0.70;;
9420;SDS011;4749;51.398;5.466;2023-08-08T13:10:00;2.45;;;0.70;;
9420;SDS011;4749;51.398;5.466;2023-08-08T13:12:27;2.47;;;0.80;;
9420;SDS011;4749;51.398;5.466;2023-08-08T13:14:54;0.98;;;0.57;;
9420;SDS011;4749;51.398;5.466;2023-08-08T13:17:22;1.38;;;0.70;;
9420;SDS011;4749;51.398;5.466;2023-08-08T13:19:49;1.48;;;0.80;;
9420;SDS011;4749;51.398;5.466;2023-08-08T13:22:16;2.35;;;0.80;;
9420;SDS011;4749;51.398;5.466;2023-08-08T13:24:43;4.35;;;0.80;;
9420;SDS011;4749;51.398;5.466;2023-08-08T13:27:10;2.47;;;0.70;;
9420;SDS011;4749;51.398;5.466;2023-08-08T13:29:37;1.45;;;0.80;;
9420;SDS011;4749;51.398;5.466;2023-08-08T13:32:04;1.60;;;0.70;;
9420;SDS011;4749;51.398;5.466;2023-08-08T13:34:32;1.27;;;0.70;;
9420;SDS011;4749;51.398;5.466;2023-08-08T13:36:59;4.82;;;0.75;;
9420;SDS011;4749;51.398;5.466;2023-08-08T13:39:26;1.13;;;0.60;;
9420;SDS011;4749;51.398;5.466;2023-08-08T13:41:54;1.52;;;0.60;;
9420;SDS011;4749;51.398;5.466;2023-08-08T13:44:21;2.08;;;0.70;;
9420;SDS011;4749;51.398;5.466;2023-08-08T13:46:48;5.20;;;0.80;;
9420;SDS011;4749;51.398;5.466;2023-08-08T13:49:15;1.33;;;0.75;;
9420;SDS011;4749;51.398;5.466;2023-08-08T13:51:42;0.88;;;0.70;;
9420;SDS011;4749;51.398;5.466;2023-08-08T13:54:13;2.55;;;0.80;;
9420;SDS011;4749;51.398;5.466;2023-08-08T13:56:40;2.28;;;0.70;;
9420;SDS011;4749;51.398;5.466;2023-08-08T13:59:07;3.30;;;1.20;;
9420;SDS011;4749;51.398;5.466;2023-08-08T14:01:34;3.28;;;1.00;;
9420;SDS011;4749;51.398;5.466;2023-08-08T14:04:02;2.42;;;1.00;;
9420;SDS011;4749;51.398;5.466;2023-08-08T14:06:30;1.48;;;0.70;;
9420;SDS011;4749;51.398;5.466;2023-08-08T14:08:57;1.55;;;0.90;;
9420;SDS011;4749;51.398;5.466;2023-08-08T14:11:24;2.13;;;0.70;;
9420;SDS011;4749;51.398;5.466;2023-08-08T14:13:51;3.33;;;0.93;;
9420;SDS011;4749;51.398;5.466;2023-08-08T14:16:18;6.78;;;1.00;;
9420;SDS011;4749;51.398;5.466;2023-08-08T14:18:45;3.53;;;1.13;;
9420;SDS011;4749;51.398;5.466;2023-08-08T14:21:14;1.77;;;0.80;;
9420;SDS011;4749;51.398;5.466;2023-08-08T14:23:41;4.00;;;1.00;;
9420;SDS011;4749;51.398;5.466;2023-08-08T14:26:08;2.47;;;0.90;;
9420;SDS011;4749;51.398;5.466;2023-08-08T14:28:35;4.50;;;1.05;;
9420;SDS011;4749;51.398;5.466;2023-08-08T14:31:03;2.92;;;0.90;;
9420;SDS011;4749;51.398;5.466;2023-08-08T14:33:33;2.03;;;1.10;;
9420;SDS011;4749;51.398;5.466;2023-08-08T14:36:00;4.03;;;1.10;;
9420;SDS011;4749;51.398;5.466;2023-08-08T14:38:27;2.88;;;1.20;;
9420;SDS011;4749;51.398;5.466;2023-08-08T14:40:54;2.83;;;1.00;;
9420;SDS011;4749;51.398;5.466;2023-08-08T14:43:22;3.45;;;1.10;;
9420;SDS011;4749;51.398;5.466;2023-08-08T14:45:50;4.28;;;1.00;;
9420;SDS011;4749;51.398;5.466;2023-08-08T14:48:17;2.53;;;0.90;;
9420;SDS011;4749;51.398;5.466;2023-08-08T14:50:44;2.05;;;0.90;;
9420;SDS011;4749;51.398;5.466;2023-08-08T14:53:11;2.50;;;1.00;;
9420;SDS011;4749;51.398;5.466;2023-08-08T14:55:39;1.42;;;0.75;;
9420;SDS011;4749;51.398;5.466;2023-08-08T14:58:06;3.15;;;1.10;;
9420;SDS011;4749;51.398;5.466;2023-08-08T15:00:33;2.05;;;1.17;;
9420;SDS011;4749;51.398;5.466;2023-08-08T15:03:00;1.63;;;0.80;;
9420;SDS011;4749;51.398;5.466;2023-08-08T15:05:28;3.33;;;0.95;;
9420;SDS011;4749;51.398;5.466;2023-08-08T15:07:55;2.05;;;0.82;;
9420;SDS011;4749;51.398;5.466;2023-08-08T15:10:23;3.88;;;1.20;;
9420;SDS011;4749;51.398;5.466;2023-08-08T15:12:53;5.25;;;1.10;;
9420;SDS011;4749;51.398;5.466;2023-08-08T15:15:20;1.40;;;1.00;;
9420;SDS011;4749;51.398;5.466;2023-08-08T15:17:49;4.45;;;1.20;;
9420;SDS011;4749;51.398;5.466;2023-08-08T15:20:17;3.60;;;1.02;;